createdAt,value
2018-08-03T00:01:30.822Z,52.20
2018-08-03T00:03:59.735Z,52.20
2018-08-03T00:06:28.778Z,52.50
2018-08-03T00:08:57.655Z,52.40
2018-08-03T00:11:26.562Z,52.50
2018-08-03T00:13:55.427Z,52.60
2018-08-03T00:16:24.318Z,53.00
2018-08-03T00:18:53.406Z,53.10
2018-08-03T00:21:22.339Z,53.30
2018-08-03T00:23:51.238Z,53.10
2018-08-03T00:26:20.143Z,53.90
2018-08-03T00:28:49.041Z,53.60
2018-08-03T00:31:17.958Z,53.60
2018-08-03T00:33:46.970Z,54.10
2018-08-03T00:36:15.850Z,55.10
2018-08-03T00:38:44.999Z,56.00
2018-08-03T00:41:13.893Z,56.30
2018-08-03T00:43:42.787Z,56.50
2018-08-03T00:46:11.710Z,56.90
2018-08-03T00:48:40.594Z,57.20
2018-08-03T00:51:09.495Z,57.90
2018-08-03T00:53:38.374Z,58.30
2018-08-03T00:56:07.314Z,59.60
2018-08-03T00:58:36.202Z,60.40
2018-08-03T01:01:05.193Z,60.30
2018-08-03T01:03:34.114Z,61.10
2018-08-03T01:06:03.053Z,61.10
2018-08-03T01:08:31.975Z,61.10
2018-08-03T01:11:00.893Z,61.10
2018-08-03T01:13:29.781Z,61.30
2018-08-03T01:15:58.684Z,61.90
2018-08-03T01:18:27.563Z,61.90
2018-08-03T01:20:56.477Z,62.30
2018-08-03T01:23:25.405Z,62.40
2018-08-03T01:25:54.285Z,62.00
2018-08-03T01:28:23.173Z,62.00
2018-08-03T01:30:52.073Z,62.70
2018-08-03T01:33:20.962Z,61.50
2018-08-03T01:35:49.889Z,61.60
2018-08-03T01:38:18.771Z,61.40
2018-08-03T01:40:47.698Z,60.80
2018-08-03T01:43:16.686Z,60.90
2018-08-03T01:45:45.702Z,61.00
2018-08-03T01:48:14.682Z,60.90
2018-08-03T01:50:43.586Z,60.10
2018-08-03T01:53:12.466Z,60.80
2018-08-03T01:55:41.363Z,60.50
2018-08-03T01:58:10.274Z,60.80
2018-08-03T02:03:07.753Z,60.50
2018-08-03T02:05:36.650Z,60.50
2018-08-03T02:08:05.840Z,60.50
2018-08-03T02:10:34.770Z,60.00
2018-08-03T02:13:03.689Z,60.00
2018-08-03T02:15:32.681Z,60.70
2018-08-03T02:18:01.594Z,60.70
2018-08-03T02:20:30.482Z,61.00
2018-08-03T02:22:59.416Z,61.90
2018-08-03T02:25:28.286Z,61.90
2018-08-03T02:27:57.174Z,61.90
2018-08-03T02:30:26.055Z,61.90
2018-08-03T02:32:54.941Z,61.90
2018-08-03T02:37:52.942Z,62.00
2018-08-03T02:40:21.856Z,62.00
2018-08-03T02:42:50.806Z,62.10
2018-08-03T02:45:19.731Z,62.90
2018-08-03T02:47:48.942Z,62.90
2018-08-03T02:50:17.836Z,63.10
2018-08-03T02:52:46.728Z,63.60
2018-08-03T02:55:15.614Z,64.00
2018-08-03T02:57:44.642Z,65.10
2018-08-03T03:00:13.554Z,65.10
2018-08-03T03:02:42.492Z,65.10
2018-08-03T03:05:11.442Z,65.10
2018-08-03T03:07:40.325Z,65.60
2018-08-03T03:10:09.237Z,65.60
2018-08-03T03:12:38.160Z,66.20
2018-08-03T03:15:07.377Z,65.70
2018-08-03T03:17:36.504Z,66.30
2018-08-03T03:20:05.463Z,65.80
2018-08-03T03:22:34.392Z,66.30
2018-08-03T03:25:03.489Z,66.80
2018-08-03T03:27:32.366Z,67.90
2018-08-03T03:30:01.254Z,68.10
2018-08-03T03:32:30.171Z,67.90
2018-08-03T03:34:59.069Z,68.20
2018-08-03T03:37:27.966Z,67.50
2018-08-03T03:39:56.954Z,68.00
2018-08-03T03:42:25.914Z,67.40
2018-08-03T03:44:54.942Z,66.70
2018-08-03T03:47:23.850Z,65.90
2018-08-03T03:49:52.791Z,65.90
2018-08-03T03:52:21.722Z,65.50
2018-08-03T03:54:50.602Z,66.40
2018-08-03T03:57:19.546Z,66.10
2018-08-03T03:59:48.439Z,65.90
2018-08-03T04:02:17.387Z,65.90
2018-08-03T04:04:46.278Z,65.80
2018-08-03T04:07:15.218Z,66.00
2018-08-03T04:09:44.102Z,66.40
2018-08-03T04:12:13.112Z,66.80
2018-08-03T04:14:41.962Z,67.00
2018-08-03T04:17:10.858Z,67.20
2018-08-03T04:19:39.790Z,67.40
2018-08-03T04:22:08.698Z,67.60
2018-08-03T04:24:37.565Z,67.70
2018-08-03T04:27:06.491Z,67.90
2018-08-03T04:29:35.401Z,67.80
2018-08-03T04:32:04.364Z,67.60
2018-08-03T04:34:33.310Z,67.80
2018-08-03T04:37:02.262Z,67.50
2018-08-03T04:39:31.150Z,66.50
2018-08-03T04:42:00.062Z,65.80
2018-08-03T04:44:28.954Z,66.10
2018-08-03T04:46:57.893Z,65.20
2018-08-03T04:49:26.819Z,65.00
2018-08-03T04:51:55.692Z,65.10
2018-08-03T04:54:24.578Z,64.40
2018-08-03T04:56:53.525Z,64.60
2018-08-03T04:59:22.417Z,65.00
2018-08-03T05:01:51.366Z,64.10
2018-08-03T05:04:20.281Z,63.80
2018-08-03T05:06:49.183Z,63.90
2018-08-03T05:09:18.093Z,64.00
2018-08-03T05:11:46.983Z,62.90
2018-08-03T05:14:15.889Z,61.50
2018-08-03T05:16:44.812Z,61.40
2018-08-03T05:19:13.826Z,60.60
2018-08-03T05:21:42.827Z,59.00
2018-08-03T05:24:11.772Z,58.30
2018-08-03T05:26:40.771Z,58.80
2018-08-03T05:29:09.722Z,58.50
2018-08-03T05:31:38.598Z,58.40
2018-08-03T05:34:07.621Z,58.40
2018-08-03T05:36:36.662Z,58.20
2018-08-03T05:39:09.466Z,58.50
2018-08-03T05:41:38.750Z,58.10
2018-08-03T05:44:08.178Z,56.90
2018-08-03T05:46:37.274Z,57.10
2018-08-03T05:49:06.718Z,57.00
2018-08-03T05:51:36.806Z,55.90
2018-08-03T05:54:05.833Z,55.60
2018-08-03T05:56:34.766Z,55.00
2018-08-03T05:59:03.790Z,54.30
2018-08-03T06:01:32.678Z,53.00
2018-08-03T06:04:01.685Z,53.50
2018-08-03T06:06:30.565Z,52.90
2018-08-03T06:08:59.489Z,52.40
2018-08-03T06:11:28.386Z,52.90
2018-08-03T06:13:57.321Z,52.40
2018-08-03T06:16:26.214Z,51.70
2018-08-03T06:21:24.080Z,51.50
2018-08-03T06:23:53.033Z,51.50
2018-08-03T06:26:21.927Z,51.50
2018-08-03T06:28:51.289Z,50.80
2018-08-03T06:31:20.302Z,51.00
2018-08-03T06:33:49.449Z,50.10
2018-08-03T06:36:18.444Z,50.20
2018-08-03T06:38:47.341Z,49.90
2018-08-03T06:41:16.250Z,50.20
2018-08-03T06:43:45.190Z,50.50
2018-08-03T06:46:14.148Z,49.10
2018-08-03T06:48:43.071Z,49.20
2018-08-03T06:51:12.010Z,49.10
2018-08-03T06:53:40.946Z,49.20
2018-08-03T06:56:09.875Z,49.30
2018-08-03T06:58:38.816Z,48.90
2018-08-03T07:01:08.060Z,48.10
2018-08-03T07:03:37.028Z,47.50
2018-08-03T07:06:06.178Z,48.30
2018-08-03T07:08:35.162Z,47.40
2018-08-03T07:11:04.057Z,46.90
2018-08-03T07:13:33.098Z,46.50
2018-08-03T07:16:02.042Z,45.80
2018-08-03T07:18:31.013Z,45.60
2018-08-03T07:20:59.918Z,45.20
2018-08-03T07:23:28.978Z,45.20
2018-08-03T07:25:57.954Z,45.10
2018-08-03T07:28:26.862Z,44.60
2018-08-03T07:30:55.875Z,44.90
2018-08-03T07:33:24.925Z,44.80
2018-08-03T07:35:54.442Z,44.90
2018-08-03T07:38:23.479Z,43.80
2018-08-03T07:40:52.379Z,43.50
2018-08-03T07:43:21.405Z,43.00
2018-08-03T07:45:50.285Z,42.50
2018-08-03T07:48:19.357Z,42.00
2018-08-03T07:50:48.462Z,41.80
2018-08-03T07:53:17.507Z,41.50
2018-08-03T07:55:46.412Z,41.60
2018-08-03T07:58:15.485Z,41.60
2018-08-03T08:03:13.013Z,41.00
2018-08-03T08:05:41.860Z,41.60
2018-08-03T08:08:10.871Z,41.10
2018-08-03T08:10:39.772Z,41.20
2018-08-03T08:13:08.706Z,40.10
2018-08-03T08:15:37.781Z,40.10
2018-08-03T08:18:06.638Z,40.10
2018-08-03T08:20:35.578Z,39.80
2018-08-03T08:23:04.502Z,40.20
2018-08-03T08:25:33.517Z,39.30
2018-08-03T08:28:03.398Z,39.30
2018-08-03T08:30:32.314Z,38.90
2018-08-03T08:33:01.227Z,38.10
2018-08-03T08:35:30.105Z,37.70
2018-08-03T08:37:59.020Z,37.70
2018-08-03T08:40:27.902Z,37.60
2018-08-03T08:42:56.839Z,37.80
2018-08-03T08:45:25.730Z,36.10
2018-08-03T08:47:54.634Z,35.70
2018-08-03T08:50:23.541Z,35.70
2018-08-03T08:52:52.791Z,35.40
2018-08-03T08:57:50.438Z,34.80
2018-08-03T09:00:19.326Z,34.40
2018-08-03T09:02:48.206Z,33.60
2018-08-03T09:05:17.147Z,33.80
2018-08-03T09:07:46.382Z,33.80
2018-08-03T09:10:15.328Z,33.80
2018-08-03T09:12:44.287Z,33.80
2018-08-03T09:15:13.131Z,33.80
2018-08-03T09:17:42.012Z,34.00
2018-08-03T09:20:11.045Z,33.60
2018-08-03T09:22:39.969Z,33.50
2018-08-03T09:27:37.737Z,32.70
2018-08-03T09:30:08.468Z,32.20
2018-08-03T09:32:37.646Z,31.80
2018-08-03T09:35:07.081Z,30.70
2018-08-03T09:37:36.244Z,30.10
2018-08-03T09:40:05.938Z,30.10
2018-08-03T09:42:34.887Z,30.40
2018-08-03T09:45:03.966Z,30.50
2018-08-03T09:47:33.046Z,30.50
2018-08-03T09:50:01.999Z,31.20
2018-08-03T09:52:30.871Z,30.00
2018-08-03T09:54:59.872Z,29.80
2018-08-03T09:57:28.768Z,29.70
2018-08-03T09:59:57.641Z,30.00
2018-08-03T10:02:26.648Z,29.60
2018-08-03T10:04:55.541Z,28.50
2018-08-03T10:07:24.466Z,27.70
2018-08-03T10:09:53.361Z,27.50
2018-08-03T10:12:22.237Z,26.70
2018-08-03T10:14:51.538Z,27.30
2018-08-03T10:17:20.408Z,26.60
2018-08-03T10:19:49.393Z,27.20
2018-08-03T10:22:18.302Z,26.60
2018-08-03T10:24:47.518Z,26.70
2018-08-03T10:27:16.590Z,26.20
2018-08-03T10:29:45.645Z,26.00
2018-08-03T10:32:14.612Z,26.60
2018-08-03T10:34:43.510Z,26.80
2018-08-03T10:37:12.382Z,26.20
2018-08-03T10:39:41.266Z,25.60
2018-08-03T10:42:10.154Z,25.40
2018-08-03T10:44:39.082Z,25.30
2018-08-03T10:47:08.054Z,25.00
2018-08-03T10:49:36.925Z,24.60
2018-08-03T10:52:06.071Z,24.50
2018-08-03T10:54:34.965Z,24.00
2018-08-03T10:57:03.915Z,23.70
2018-08-03T10:59:32.853Z,24.00
2018-08-03T11:02:01.934Z,24.40
2018-08-03T11:04:30.789Z,24.40
2018-08-03T11:06:59.731Z,24.90
2018-08-03T11:09:28.713Z,25.60
2018-08-03T11:11:57.988Z,25.40
2018-08-03T11:14:27.014Z,25.80
2018-08-03T11:16:56.039Z,24.80
2018-08-03T11:19:24.939Z,24.20
2018-08-03T11:21:53.840Z,22.90
2018-08-03T11:24:22.757Z,22.40
2018-08-03T11:26:51.638Z,22.30
2018-08-03T11:29:20.559Z,23.30
2018-08-03T11:31:49.433Z,23.60
2018-08-03T11:34:18.427Z,22.50
2018-08-03T11:36:47.305Z,21.40
2018-08-03T11:39:16.173Z,20.00
2018-08-03T11:41:45.134Z,20.10
2018-08-03T11:44:14.043Z,20.40
2018-08-03T11:46:42.945Z,20.50
2018-08-03T11:49:11.859Z,19.60
2018-08-03T11:51:40.847Z,18.40
2018-08-03T11:54:10.144Z,18.00
2018-08-03T11:56:39.001Z,19.00
2018-08-03T11:59:07.894Z,18.80
2018-08-03T12:01:36.794Z,18.20
2018-08-03T12:04:05.705Z,19.00
2018-08-03T12:06:34.629Z,17.90
2018-08-03T12:09:03.560Z,18.70
2018-08-03T12:11:32.453Z,18.30
2018-08-03T12:14:01.351Z,18.20
2018-08-03T12:16:30.306Z,17.60
2018-08-03T12:18:59.199Z,17.70
2018-08-03T12:21:28.285Z,17.00
2018-08-03T12:23:57.278Z,16.60
2018-08-03T12:28:54.582Z,17.10
2018-08-03T12:31:23.567Z,17.00
2018-08-03T12:33:52.414Z,18.20
2018-08-03T12:36:21.353Z,18.50
2018-08-03T12:38:50.218Z,19.50
2018-08-03T12:41:19.118Z,19.60
2018-08-03T12:43:48.097Z,19.30
2018-08-03T12:46:17.003Z,19.80
2018-08-03T12:48:45.962Z,19.90
2018-08-03T12:51:14.845Z,20.50
2018-08-03T12:53:43.737Z,20.60
2018-08-03T12:56:12.622Z,20.50
2018-08-03T12:58:41.530Z,20.40
2018-08-03T13:01:10.447Z,18.10
2018-08-03T13:03:39.279Z,16.90
2018-08-03T13:06:08.176Z,16.40
2018-08-03T13:08:37.044Z,16.80
2018-08-03T13:11:05.975Z,15.50
2018-08-03T13:13:34.938Z,15.70
2018-08-03T13:16:04.034Z,15.50
2018-08-03T13:18:32.982Z,14.60
2018-08-03T13:21:07.366Z,14.20
2018-08-03T13:23:46.434Z,13.50
2018-08-03T13:26:15.346Z,14.00
2018-08-03T13:28:44.298Z,14.90
2018-08-03T13:31:13.185Z,15.70
2018-08-03T13:33:42.118Z,16.50
2018-08-03T13:36:11.076Z,17.20
2018-08-03T13:38:39.919Z,17.70
2018-08-03T13:41:08.919Z,18.30
2018-08-03T13:43:37.814Z,18.90
2018-08-03T13:46:06.882Z,19.90
2018-08-03T13:48:35.798Z,19.80
2018-08-03T13:51:04.774Z,19.80
2018-08-03T13:53:33.774Z,19.90
2018-08-03T13:56:02.818Z,19.30
2018-08-03T13:58:32.012Z,19.90
2018-08-03T14:01:12.594Z,19.80
2018-08-03T14:03:41.596Z,19.70
2018-08-03T14:06:10.703Z,19.80
2018-08-03T14:08:39.735Z,20.10
2018-08-03T14:11:08.751Z,19.80
2018-08-03T14:13:37.666Z,19.90
2018-08-03T14:16:06.615Z,19.00
2018-08-03T14:18:35.565Z,19.90
2018-08-03T14:21:04.503Z,19.30
2018-08-03T14:23:33.500Z,16.90
2018-08-03T14:26:02.442Z,16.00
2018-08-03T14:28:31.327Z,15.30
2018-08-03T14:31:00.585Z,16.20
2018-08-03T14:35:58.067Z,14.20
2018-08-03T14:38:27.171Z,14.20
2018-08-03T14:40:56.115Z,13.20
2018-08-03T14:43:25.022Z,12.40
2018-08-03T14:45:53.932Z,12.60
2018-08-03T14:48:22.837Z,11.90
2018-08-03T14:50:51.787Z,10.50
2018-08-03T14:53:20.660Z,11.50
2018-08-03T14:55:49.584Z,10.80
2018-08-03T14:58:18.721Z,10.60
2018-08-03T15:00:47.630Z,10.70
2018-08-03T15:03:16.537Z,9.90
2018-08-03T15:05:45.464Z,10.70
2018-08-03T15:10:43.122Z,10.70
2018-08-03T15:13:12.171Z,10.60
2018-08-03T15:15:41.079Z,10.50
2018-08-03T15:18:10.015Z,10.60
2018-08-03T15:20:38.941Z,10.60
2018-08-03T15:23:07.870Z,10.00
2018-08-03T15:25:36.912Z,9.90
2018-08-03T15:28:05.852Z,10.40
2018-08-03T15:30:34.741Z,10.80
2018-08-03T15:33:03.637Z,10.90
2018-08-03T15:35:32.552Z,10.00
2018-08-03T15:38:01.546Z,9.80
2018-08-03T15:40:30.454Z,8.80
2018-08-03T15:42:59.386Z,9.40
2018-08-03T15:45:28.323Z,9.20
2018-08-03T15:47:57.170Z,9.00
2018-08-03T15:50:26.071Z,8.90
2018-08-03T15:52:55.006Z,9.20
2018-08-03T15:55:23.902Z,9.60
2018-08-03T15:57:52.791Z,9.30
2018-08-03T16:00:21.774Z,9.60
2018-08-03T16:02:50.750Z,9.70
2018-08-03T16:05:19.631Z,9.80
2018-08-03T16:07:48.541Z,9.60
2018-08-03T16:10:17.434Z,9.60
2018-08-03T16:12:46.365Z,9.00
2018-08-03T16:15:15.218Z,9.10
2018-08-03T16:17:44.119Z,8.90
2018-08-03T16:20:13.016Z,8.70
2018-08-03T16:22:41.914Z,8.50
2018-08-03T16:25:10.871Z,8.40
2018-08-03T16:27:39.766Z,8.80
2018-08-03T16:30:09.573Z,9.50
2018-08-03T16:32:38.528Z,9.10
2018-08-03T16:35:08.329Z,9.10
2018-08-03T16:37:37.255Z,9.00
2018-08-03T16:40:07.346Z,8.90
2018-08-03T16:42:36.509Z,9.40
2018-08-03T16:45:06.488Z,10.40
2018-08-03T16:47:35.480Z,10.40
2018-08-03T16:50:04.695Z,10.20
2018-08-03T16:52:33.636Z,11.70
2018-08-03T16:57:31.137Z,13.60
2018-08-03T17:00:00.122Z,13.90
2018-08-03T17:02:29.022Z,14.20
2018-08-03T17:04:57.897Z,14.10
2018-08-03T17:07:26.796Z,13.80
2018-08-03T17:09:55.669Z,13.70
2018-08-03T17:12:24.566Z,13.90
2018-08-03T17:14:53.423Z,13.90
2018-08-03T17:17:22.310Z,13.40
2018-08-03T17:19:51.194Z,12.60
2018-08-03T17:22:20.071Z,12.00
2018-08-03T17:24:48.975Z,12.10
2018-08-03T17:27:17.894Z,12.20
2018-08-03T17:29:46.781Z,12.90
2018-08-03T17:32:15.689Z,13.20
2018-08-03T17:34:44.582Z,13.70
2018-08-03T17:37:13.518Z,14.90
2018-08-03T17:39:42.434Z,15.80
2018-08-03T17:42:11.334Z,16.90
2018-08-03T17:44:40.219Z,17.00
2018-08-03T17:47:09.086Z,17.00
2018-08-03T17:49:38.009Z,17.50
2018-08-03T17:52:07.018Z,17.70
2018-08-03T17:54:35.978Z,18.10
2018-08-03T17:57:04.985Z,19.30
2018-08-03T17:59:33.951Z,19.80
2018-08-03T18:02:02.855Z,20.70
2018-08-03T18:04:32.317Z,21.70
2018-08-03T18:07:01.207Z,22.30
2018-08-03T18:09:30.222Z,22.30
2018-08-03T18:11:59.094Z,23.00
2018-08-03T18:14:28.082Z,23.50
2018-08-03T18:16:57.031Z,24.10
2018-08-03T18:19:25.907Z,24.50
2018-08-03T18:21:54.906Z,25.10
2018-08-03T18:24:23.770Z,25.50
2018-08-03T18:26:52.826Z,25.90
2018-08-03T18:29:21.844Z,26.10
2018-08-03T18:31:50.647Z,26.10
2018-08-03T18:34:19.686Z,26.30
2018-08-03T18:36:48.627Z,26.80
2018-08-03T18:39:17.490Z,26.90
2018-08-03T18:41:46.383Z,27.40
2018-08-03T18:44:15.276Z,27.60
2018-08-03T18:46:44.194Z,27.90
2018-08-03T18:49:13.099Z,27.90
2018-08-03T18:51:41.982Z,28.10
2018-08-03T18:54:10.876Z,28.70
2018-08-03T18:56:39.805Z,28.80
2018-08-03T18:59:08.707Z,28.80
2018-08-03T19:01:37.689Z,28.80
2018-08-03T19:04:06.665Z,29.30
2018-08-03T19:06:35.961Z,29.30
2018-08-03T19:09:06.866Z,29.70
2018-08-03T19:11:35.817Z,30.20
2018-08-03T19:14:04.788Z,30.20
2018-08-03T19:16:33.698Z,30.50
2018-08-03T19:19:02.706Z,30.80
2018-08-03T19:21:31.619Z,31.20
2018-08-03T19:24:00.517Z,31.10
2018-08-03T19:26:29.432Z,31.70
2018-08-03T19:28:58.326Z,32.30
2018-08-03T19:31:27.221Z,32.20
2018-08-03T19:33:56.127Z,32.60
2018-08-03T19:36:25.014Z,32.50
2018-08-03T19:38:53.886Z,33.20
2018-08-03T19:41:22.778Z,33.20
2018-08-03T19:43:51.654Z,33.20
2018-08-03T19:46:20.544Z,33.20
2018-08-03T19:48:49.418Z,34.00
2018-08-03T19:51:18.354Z,34.60
2018-08-03T19:53:47.226Z,34.80
2018-08-03T19:56:16.114Z,34.90
2018-08-03T19:58:45.096Z,34.80
2018-08-03T20:01:13.967Z,35.40
2018-08-03T20:03:42.846Z,35.30
2018-08-03T20:06:11.768Z,35.20
2018-08-03T20:08:40.653Z,35.60
2018-08-03T20:11:09.610Z,35.50
2018-08-03T20:13:38.739Z,36.30
2018-08-03T20:16:07.859Z,36.60
2018-08-03T20:18:36.928Z,36.80
2018-08-03T20:21:05.906Z,37.10
2018-08-03T20:23:34.868Z,37.40
2018-08-03T20:26:04.873Z,38.00
2018-08-03T20:28:34.057Z,38.30
2018-08-03T20:31:02.943Z,38.60
2018-08-03T20:33:31.900Z,38.50
2018-08-03T20:36:00.869Z,38.80
2018-08-03T20:38:29.790Z,39.00
2018-08-03T20:40:58.737Z,39.20
2018-08-03T20:43:27.684Z,39.30
2018-08-03T20:45:56.590Z,39.20
2018-08-03T20:48:25.577Z,39.30
2018-08-03T20:50:54.601Z,39.60
2018-08-03T20:53:23.631Z,40.20
2018-08-03T20:55:52.657Z,39.70
2018-08-03T20:58:21.631Z,39.70
2018-08-03T21:00:50.545Z,39.90
2018-08-03T21:03:19.448Z,40.30
2018-08-03T21:05:48.395Z,40.30
2018-08-03T21:08:17.290Z,40.60
2018-08-03T21:10:46.258Z,40.40
2018-08-03T21:13:15.250Z,41.10
2018-08-03T21:15:44.130Z,41.20
2018-08-03T21:18:13.102Z,40.90
2018-08-03T21:20:41.971Z,41.00
2018-08-03T21:23:10.876Z,40.70
2018-08-03T21:25:39.751Z,41.00
2018-08-03T21:28:08.673Z,41.00
2018-08-03T21:30:37.604Z,41.00
2018-08-03T21:33:06.718Z,41.60
2018-08-03T21:35:35.605Z,41.60
2018-08-03T21:38:04.616Z,41.60
2018-08-03T21:40:33.553Z,41.60
2018-08-03T21:45:30.951Z,41.50
2018-08-03T21:47:59.901Z,41.40
2018-08-03T21:50:28.949Z,42.00
2018-08-03T21:52:57.835Z,41.50
2018-08-03T21:55:26.715Z,41.50
2018-08-03T21:57:55.619Z,41.60
2018-08-03T22:00:24.565Z,42.20
2018-08-03T22:02:53.509Z,41.50
2018-08-03T22:05:22.545Z,41.50
2018-08-03T22:07:51.650Z,41.90
2018-08-03T22:10:20.578Z,42.00
2018-08-03T22:12:49.482Z,42.70
2018-08-03T22:15:18.478Z,43.00
2018-08-03T22:17:47.399Z,42.50
2018-08-03T22:20:16.363Z,42.80
2018-08-03T22:22:45.434Z,43.10
2018-08-03T22:25:14.378Z,43.00
2018-08-03T22:27:43.302Z,43.60
2018-08-03T22:30:12.214Z,43.00
2018-08-03T22:32:41.206Z,43.00
2018-08-03T22:35:10.254Z,43.40
2018-08-03T22:37:39.161Z,43.30
2018-08-03T22:40:08.090Z,43.30
2018-08-03T22:42:36.997Z,43.20
2018-08-03T22:45:05.942Z,44.00
2018-08-03T22:47:34.996Z,44.00
2018-08-03T22:50:04.030Z,44.00
2018-08-03T22:52:33.409Z,44.30
2018-08-03T22:55:02.800Z,44.60
2018-08-03T22:57:32.030Z,44.80
2018-08-03T23:00:01.048Z,45.00
2018-08-03T23:02:29.976Z,44.90
2018-08-03T23:04:58.972Z,45.10
2018-08-03T23:07:27.830Z,45.00
2018-08-03T23:09:56.764Z,45.10
2018-08-03T23:12:25.716Z,45.60
2018-08-03T23:14:54.618Z,45.60
2018-08-03T23:17:23.845Z,45.60
2018-08-03T23:19:52.730Z,46.10
2018-08-03T23:22:21.657Z,47.00
2018-08-03T23:24:50.605Z,46.70
2018-08-03T23:27:19.499Z,46.40
2018-08-03T23:29:48.403Z,46.40
2018-08-03T23:34:45.816Z,46.70
2018-08-03T23:37:14.706Z,47.40
2018-08-03T23:39:43.602Z,47.20
2018-08-03T23:42:12.637Z,47.20
2018-08-03T23:44:41.534Z,47.20
2018-08-03T23:47:10.458Z,47.80
2018-08-03T23:49:39.370Z,47.80
2018-08-03T23:52:08.254Z,47.90
2018-08-03T23:54:37.171Z,48.00
2018-08-03T23:57:06.092Z,47.80
2018-08-03T23:59:35.119Z,47.70
